sensor_id;sensor_type;location;lat;lon;timestamp;P1;durP1;ratioP1;P2;durP2;ratioP2
17369;SDS011;8802;52.402;4.920;2022-08-19T00:00:08;5.22;;;4.80;;
17369;SDS011;8802;52.402;4.920;2022-08-19T00:02:38;5.43;;;4.43;;
17369;SDS011;8802;52.402;4.920;2022-08-19T00:05:06;5.70;;;4.78;;
17369;SDS011;8802;52.402;4.920;2022-08-19T00:07:33;5.57;;;5.07;;
17369;SDS011;8802;52.402;4.920;2022-08-19T00:10:00;5.32;;;4.85;;
17369;SDS011;8802;52.402;4.920;2022-08-19T00:12:28;5.25;;;4.85;;
17369;SDS011;8802;52.402;4.920;2022-08-19T00:14:55;5.72;;;5.18;;
17369;SDS011;8802;52.402;4.920;2022-08-19T00:17:22;6.25;;;5.70;;
17369;SDS011;8802;52.402;4.920;2022-08-19T00:19:49;7.68;;;6.95;;
17369;SDS011;8802;52.402;4.920;2022-08-19T00:22:16;6.72;;;5.75;;
17369;SDS011;8802;52.402;4.920;2022-08-19T00:24:43;7.97;;;6.95;;
17369;SDS011;8802;52.402;4.920;2022-08-19T00:27:10;7.25;;;6.65;;
17369;SDS011;8802;52.402;4.920;2022-08-19T00:29:39;6.57;;;6.07;;
17369;SDS011;8802;52.402;4.920;2022-08-19T00:32:06;7.13;;;6.47;;
17369;SDS011;8802;52.402;4.920;2022-08-19T00:34:32;6.65;;;6.10;;
17369;SDS011;8802;52.402;4.920;2022-08-19T00:37:00;7.32;;;5.57;;
17369;SDS011;8802;52.402;4.920;2022-08-19T00:39:27;6.22;;;5.63;;
17369;SDS011;8802;52.402;4.920;2022-08-19T00:41:55;7.05;;;6.45;;
17369;SDS011;8802;52.402;4.920;2022-08-19T00:44:23;6.80;;;6.05;;
17369;SDS011;8802;52.402;4.920;2022-08-19T00:46:54;6.32;;;5.80;;
17369;SDS011;8802;52.402;4.920;2022-08-19T00:49:25;6.38;;;5.88;;
17369;SDS011;8802;52.402;4.920;2022-08-19T00:51:55;6.88;;;5.65;;
17369;SDS011;8802;52.402;4.920;2022-08-19T00:54:25;7.15;;;6.55;;
17369;SDS011;8802;52.402;4.920;2022-08-19T00:56:52;6.75;;;6.07;;
17369;SDS011;8802;52.402;4.920;2022-08-19T00:59:19;6.78;;;6.18;;
17369;SDS011;8802;52.402;4.920;2022-08-19T01:01:47;7.15;;;6.53;;
17369;SDS011;8802;52.402;4.920;2022-08-19T01:04:15;7.63;;;6.93;;
17369;SDS011;8802;52.402;4.920;2022-08-19T01:06:42;7.38;;;6.78;;
17369;SDS011;8802;52.402;4.920;2022-08-19T01:09:09;7.00;;;6.35;;
17369;SDS011;8802;52.402;4.920;2022-08-19T01:11:37;7.00;;;6.40;;
17369;SDS011;8802;52.402;4.920;2022-08-19T01:14:08;7.22;;;6.60;;
17369;SDS011;8802;52.402;4.920;2022-08-19T01:16:36;6.70;;;5.82;;
17369;SDS011;8802;52.402;4.920;2022-08-19T01:19:06;6.45;;;5.95;;
17369;SDS011;8802;52.402;4.920;2022-08-19T01:21:42;7.70;;;6.97;;
17369;SDS011;8802;52.402;4.920;2022-08-19T01:24:15;7.47;;;6.53;;
17369;SDS011;8802;52.402;4.920;2022-08-19T01:26:43;6.53;;;5.93;;
17369;SDS011;8802;52.402;4.920;2022-08-19T01:29:10;7.65;;;6.95;;
17369;SDS011;8802;52.402;4.920;2022-08-19T01:31:37;7.80;;;6.55;;
17369;SDS011;8802;52.402;4.920;2022-08-19T01:34:05;8.35;;;6.93;;
17369;SDS011;8802;52.402;4.920;2022-08-19T01:36:33;8.32;;;6.45;;
17369;SDS011;8802;52.402;4.920;2022-08-19T01:39:05;8.68;;;7.60;;
17369;SDS011;8802;52.402;4.920;2022-08-19T01:41:36;9.18;;;8.25;;
17369;SDS011;8802;52.402;4.920;2022-08-19T01:44:04;8.30;;;7.50;;
17369;SDS011;8802;52.402;4.920;2022-08-19T01:46:32;9.57;;;8.68;;
17369;SDS011;8802;52.402;4.920;2022-08-19T01:48:59;9.05;;;8.35;;
17369;SDS011;8802;52.402;4.920;2022-08-19T01:51:26;10.23;;;9.25;;
17369;SDS011;8802;52.402;4.920;2022-08-19T01:53:53;9.07;;;8.35;;
17369;SDS011;8802;52.402;4.920;2022-08-19T01:56:20;9.70;;;8.90;;
17369;SDS011;8802;52.402;4.920;2022-08-19T01:58:49;9.70;;;8.90;;
17369;SDS011;8802;52.402;4.920;2022-08-19T02:01:18;10.10;;;9.30;;
17369;SDS011;8802;52.402;4.920;2022-08-19T02:03:45;10.25;;;9.35;;
17369;SDS011;8802;52.402;4.920;2022-08-19T02:06:12;9.48;;;8.60;;
17369;SDS011;8802;52.402;4.920;2022-08-19T02:08:42;10.27;;;9.27;;
17369;SDS011;8802;52.402;4.920;2022-08-19T02:11:17;10.68;;;9.70;;
17369;SDS011;8802;52.402;4.920;2022-08-19T02:13:45;9.88;;;8.88;;
17369;SDS011;8802;52.402;4.920;2022-08-19T02:16:13;9.98;;;9.20;;
17369;SDS011;8802;52.402;4.920;2022-08-19T02:18:40;9.57;;;8.88;;
17369;SDS011;8802;52.402;4.920;2022-08-19T02:21:07;9.73;;;8.93;;
17369;SDS011;8802;52.402;4.920;2022-08-19T02:23:34;9.20;;;8.40;;
17369;SDS011;8802;52.402;4.920;2022-08-19T02:26:01;9.30;;;8.48;;
17369;SDS011;8802;52.402;4.920;2022-08-19T02:28:28;9.20;;;8.40;;
17369;SDS011;8802;52.402;4.920;2022-08-19T02:30:55;8.98;;;8.07;;
17369;SDS011;8802;52.402;4.920;2022-08-19T02:33:23;9.13;;;8.40;;
17369;SDS011;8802;52.402;4.920;2022-08-19T02:35:50;8.88;;;8.07;;
17369;SDS011;8802;52.402;4.920;2022-08-19T02:38:16;9.55;;;8.55;;
17369;SDS011;8802;52.402;4.920;2022-08-19T02:40:53;8.38;;;7.68;;
17369;SDS011;8802;52.402;4.920;2022-08-19T02:43:22;9.35;;;8.57;;
17369;SDS011;8802;52.402;4.920;2022-08-19T02:45:50;10.68;;;8.65;;
17369;SDS011;8802;52.402;4.920;2022-08-19T02:48:18;10.70;;;9.60;;
17369;SDS011;8802;52.402;4.920;2022-08-19T02:50:47;8.13;;;7.45;;
17369;SDS011;8802;52.402;4.920;2022-08-19T02:53:20;9.20;;;8.43;;
17369;SDS011;8802;52.402;4.920;2022-08-19T02:55:47;8.20;;;7.50;;
17369;SDS011;8802;52.402;4.920;2022-08-19T02:58:15;9.43;;;8.43;;
17369;SDS011;8802;52.402;4.920;2022-08-19T03:00:44;9.80;;;8.80;;
17369;SDS011;8802;52.402;4.920;2022-08-19T03:03:13;8.57;;;7.95;;
17369;SDS011;8802;52.402;4.920;2022-08-19T03:05:40;9.45;;;8.60;;
17369;SDS011;8802;52.402;4.920;2022-08-19T03:08:10;9.13;;;8.35;;
17369;SDS011;8802;52.402;4.920;2022-08-19T03:10:41;10.00;;;9.15;;
17369;SDS011;8802;52.402;4.920;2022-08-19T03:13:10;9.68;;;8.73;;
17369;SDS011;8802;52.402;4.920;2022-08-19T03:15:39;9.68;;;8.88;;
17369;SDS011;8802;52.402;4.920;2022-08-19T03:18:06;10.07;;;9.25;;
17369;SDS011;8802;52.402;4.920;2022-08-19T03:20:33;9.55;;;8.55;;
17369;SDS011;8802;52.402;4.920;2022-08-19T03:23:05;9.07;;;8.35;;
17369;SDS011;8802;52.402;4.920;2022-08-19T03:25:37;10.48;;;9.38;;
17369;SDS011;8802;52.402;4.920;2022-08-19T03:28:05;10.70;;;9.73;;
17369;SDS011;8802;52.402;4.920;2022-08-19T03:30:32;10.77;;;9.88;;
17369;SDS011;8802;52.402;4.920;2022-08-19T03:32:59;11.20;;;9.27;;
17369;SDS011;8802;52.402;4.920;2022-08-19T03:35:26;10.43;;;9.13;;
17369;SDS011;8802;52.402;4.920;2022-08-19T03:37:53;11.32;;;10.25;;
17369;SDS011;8802;52.402;4.920;2022-08-19T03:40:21;11.48;;;10.27;;
17369;SDS011;8802;52.402;4.920;2022-08-19T03:42:49;10.55;;;9.70;;
17369;SDS011;8802;52.402;4.920;2022-08-19T03:45:16;10.93;;;9.93;;
17369;SDS011;8802;52.402;4.920;2022-08-19T03:47:44;11.82;;;10.85;;
17369;SDS011;8802;52.402;4.920;2022-08-19T03:50:11;12.10;;;11.02;;
17369;SDS011;8802;52.402;4.920;2022-08-19T03:52:38;12.57;;;11.32;;
17369;SDS011;8802;52.402;4.920;2022-08-19T03:55:05;12.88;;;11.70;;
17369;SDS011;8802;52.402;4.920;2022-08-19T03:57:33;12.07;;;10.90;;
17369;SDS011;8802;52.402;4.920;2022-08-19T04:00:02;13.43;;;12.32;;
17369;SDS011;8802;52.402;4.920;2022-08-19T04:02:31;12.63;;;11.52;;
17369;SDS011;8802;52.402;4.920;2022-08-19T04:04:58;14.93;;;12.77;;
17369;SDS011;8802;52.402;4.920;2022-08-19T04:07:25;13.15;;;11.98;;
17369;SDS011;8802;52.402;4.920;2022-08-19T04:09:52;12.27;;;11.15;;
17369;SDS011;8802;52.402;4.920;2022-08-19T04:12:19;13.98;;;12.65;;
17369;SDS011;8802;52.402;4.920;2022-08-19T04:14:46;13.30;;;11.38;;
17369;SDS011;8802;52.402;4.920;2022-08-19T04:17:14;13.77;;;12.38;;
17369;SDS011;8802;52.402;4.920;2022-08-19T04:19:41;13.45;;;12.25;;
17369;SDS011;8802;52.402;4.920;2022-08-19T04:22:08;13.90;;;12.52;;
17369;SDS011;8802;52.402;4.920;2022-08-19T04:24:36;14.15;;;12.82;;
17369;SDS011;8802;52.402;4.920;2022-08-19T04:27:04;12.02;;;10.90;;
17369;SDS011;8802;52.402;4.920;2022-08-19T04:29:31;14.35;;;13.05;;
17369;SDS011;8802;52.402;4.920;2022-08-19T04:31:59;14.82;;;13.48;;
17369;SDS011;8802;52.402;4.920;2022-08-19T04:34:28;14.10;;;12.70;;
17369;SDS011;8802;52.402;4.920;2022-08-19T04:36:56;14.70;;;13.40;;
17369;SDS011;8802;52.402;4.920;2022-08-19T04:39:25;14.57;;;13.27;;
17369;SDS011;8802;52.402;4.920;2022-08-19T04:42:08;15.63;;;14.23;;
17369;SDS011;8802;52.402;4.920;2022-08-19T04:44:52;15.60;;;14.10;;
17369;SDS011;8802;52.402;4.920;2022-08-19T04:47:19;17.65;;;15.52;;
17369;SDS011;8802;52.402;4.920;2022-08-19T04:49:47;17.73;;;16.00;;
17369;SDS011;8802;52.402;4.920;2022-08-19T04:52:14;19.30;;;15.95;;
17369;SDS011;8802;52.402;4.920;2022-08-19T04:54:41;17.85;;;15.30;;
17369;SDS011;8802;52.402;4.920;2022-08-19T04:57:08;19.85;;;17.85;;
17369;SDS011;8802;52.402;4.920;2022-08-19T04:59:35;19.17;;;17.17;;
17369;SDS011;8802;52.402;4.920;2022-08-19T05:02:03;18.42;;;16.42;;
17369;SDS011;8802;52.402;4.920;2022-08-19T05:04:32;19.05;;;17.30;;
17369;SDS011;8802;52.402;4.920;2022-08-19T05:07:00;18.77;;;16.85;;
17369;SDS011;8802;52.402;4.920;2022-08-19T05:09:27;20.83;;;18.77;;
17369;SDS011;8802;52.402;4.920;2022-08-19T05:11:55;17.58;;;15.88;;
17369;SDS011;8802;52.402;4.920;2022-08-19T05:14:21;20.63;;;17.50;;
17369;SDS011;8802;52.402;4.920;2022-08-19T05:16:48;21.27;;;17.67;;
17369;SDS011;8802;52.402;4.920;2022-08-19T05:19:15;19.90;;;17.30;;
17369;SDS011;8802;52.402;4.920;2022-08-19T05:22:01;22.90;;;18.67;;
17369;SDS011;8802;52.402;4.920;2022-08-19T05:24:45;20.67;;;18.50;;
17369;SDS011;8802;52.402;4.920;2022-08-19T05:27:12;24.65;;;21.10;;
17369;SDS011;8802;52.402;4.920;2022-08-19T05:29:39;20.38;;;18.08;;
17369;SDS011;8802;52.402;4.920;2022-08-19T05:32:06;22.65;;;20.35;;
17369;SDS011;8802;52.402;4.920;2022-08-19T05:34:35;21.00;;;18.77;;
17369;SDS011;8802;52.402;4.920;2022-08-19T05:37:04;24.33;;;21.38;;
17369;SDS011;8802;52.402;4.920;2022-08-19T05:39:33;21.17;;;18.83;;
17369;SDS011;8802;52.402;4.920;2022-08-19T05:42:02;24.50;;;21.42;;
17369;SDS011;8802;52.402;4.920;2022-08-19T05:44:32;24.77;;;19.98;;
17369;SDS011;8802;52.402;4.920;2022-08-19T05:47:01;23.55;;;20.92;;
17369;SDS011;8802;52.402;4.920;2022-08-19T05:49:31;23.95;;;21.50;;
17369;SDS011;8802;52.402;4.920;2022-08-19T05:52:01;24.48;;;22.02;;
17369;SDS011;8802;52.402;4.920;2022-08-19T05:54:30;23.45;;;20.92;;
17369;SDS011;8802;52.402;4.920;2022-08-19T05:56:57;23.20;;;20.70;;
17369;SDS011;8802;52.402;4.920;2022-08-19T05:59:23;25.05;;;21.85;;
17369;SDS011;8802;52.402;4.920;2022-08-19T06:01:51;22.80;;;19.48;;
17369;SDS011;8802;52.402;4.920;2022-08-19T06:04:20;26.77;;;21.52;;
17369;SDS011;8802;52.402;4.920;2022-08-19T06:06:47;23.67;;;19.70;;
17369;SDS011;8802;52.402;4.920;2022-08-19T06:09:16;25.98;;;22.08;;
17369;SDS011;8802;52.402;4.920;2022-08-19T06:11:46;30.08;;;24.10;;
17369;SDS011;8802;52.402;4.920;2022-08-19T06:14:15;25.90;;;23.25;;
17369;SDS011;8802;52.402;4.920;2022-08-19T06:16:45;30.17;;;24.35;;
17369;SDS011;8802;52.402;4.920;2022-08-19T06:19:13;30.13;;;26.33;;
17369;SDS011;8802;52.402;4.920;2022-08-19T06:21:42;32.25;;;26.30;;
17369;SDS011;8802;52.402;4.920;2022-08-19T06:24:12;28.13;;;23.33;;
17369;SDS011;8802;52.402;4.920;2022-08-19T06:26:47;28.10;;;24.55;;
17369;SDS011;8802;52.402;4.920;2022-08-19T06:29:17;31.13;;;25.10;;
17369;SDS011;8802;52.402;4.920;2022-08-19T06:31:50;28.10;;;23.27;;
17369;SDS011;8802;52.402;4.920;2022-08-19T06:34:18;29.08;;;24.98;;
17369;SDS011;8802;52.402;4.920;2022-08-19T06:36:46;29.38;;;22.83;;
17369;SDS011;8802;52.402;4.920;2022-08-19T06:39:15;36.00;;;26.38;;
17369;SDS011;8802;52.402;4.920;2022-08-19T06:41:43;29.48;;;24.40;;
17369;SDS011;8802;52.402;4.920;2022-08-19T06:44:14;32.47;;;27.52;;
17369;SDS011;8802;52.402;4.920;2022-08-19T06:46:41;35.33;;;25.98;;
17369;SDS011;8802;52.402;4.920;2022-08-19T06:49:08;37.78;;;28.35;;
17369;SDS011;8802;52.402;4.920;2022-08-19T06:51:38;35.63;;;28.67;;
17369;SDS011;8802;52.402;4.920;2022-08-19T06:54:06;35.85;;;27.83;;
17369;SDS011;8802;52.402;4.920;2022-08-19T06:56:33;35.03;;;27.67;;
17369;SDS011;8802;52.402;4.920;2022-08-19T06:59:00;36.90;;;29.27;;
17369;SDS011;8802;52.402;4.920;2022-08-19T07:01:30;40.35;;;28.85;;
17369;SDS011;8802;52.402;4.920;2022-08-19T07:04:03;37.58;;;30.00;;
17369;SDS011;8802;52.402;4.920;2022-08-19T07:06:31;36.72;;;27.25;;
17369;SDS011;8802;52.402;4.920;2022-08-19T07:08:57;34.35;;;27.20;;
17369;SDS011;8802;52.402;4.920;2022-08-19T07:11:24;41.15;;;31.05;;
17369;SDS011;8802;52.402;4.920;2022-08-19T07:13:51;34.55;;;27.15;;
17369;SDS011;8802;52.402;4.920;2022-08-19T07:16:20;33.00;;;26.63;;
17369;SDS011;8802;52.402;4.920;2022-08-19T07:18:48;34.05;;;26.25;;
17369;SDS011;8802;52.402;4.920;2022-08-19T07:21:17;31.48;;;25.35;;
17369;SDS011;8802;52.402;4.920;2022-08-19T07:23:47;35.95;;;27.85;;
17369;SDS011;8802;52.402;4.920;2022-08-19T07:26:15;35.47;;;26.55;;
17369;SDS011;8802;52.402;4.920;2022-08-19T07:28:44;30.83;;;24.45;;
17369;SDS011;8802;52.402;4.920;2022-08-19T07:31:11;36.97;;;26.90;;
17369;SDS011;8802;52.402;4.920;2022-08-19T07:33:39;36.45;;;24.92;;
17369;SDS011;8802;52.402;4.920;2022-08-19T07:36:09;35.83;;;24.90;;
17369;SDS011;8802;52.402;4.920;2022-08-19T07:38:38;31.25;;;23.17;;
17369;SDS011;8802;52.402;4.920;2022-08-19T07:41:07;35.88;;;25.35;;
17369;SDS011;8802;52.402;4.920;2022-08-19T07:43:35;27.13;;;22.70;;
17369;SDS011;8802;52.402;4.920;2022-08-19T07:46:02;27.65;;;23.50;;
17369;SDS011;8802;52.402;4.920;2022-08-19T07:48:29;29.77;;;23.50;;
17369;SDS011;8802;52.402;4.920;2022-08-19T07:50:58;27.83;;;21.25;;
17369;SDS011;8802;52.402;4.920;2022-08-19T07:53:29;27.05;;;21.08;;
17369;SDS011;8802;52.402;4.920;2022-08-19T07:55:58;25.83;;;20.63;;
17369;SDS011;8802;52.402;4.920;2022-08-19T07:58:29;30.33;;;22.27;;
17369;SDS011;8802;52.402;4.920;2022-08-19T08:00:57;29.33;;;22.40;;
17369;SDS011;8802;52.402;4.920;2022-08-19T08:03:24;26.40;;;20.17;;
17369;SDS011;8802;52.402;4.920;2022-08-19T08:06:06;26.05;;;20.45;;
17369;SDS011;8802;52.402;4.920;2022-08-19T08:08:52;25.50;;;20.60;;
17369;SDS011;8802;52.402;4.920;2022-08-19T08:11:37;26.58;;;19.73;;
17369;SDS011;8802;52.402;4.920;2022-08-19T08:14:04;23.42;;;18.13;;
17369;SDS011;8802;52.402;4.920;2022-08-19T08:16:33;23.33;;;17.65;;
17369;SDS011;8802;52.402;4.920;2022-08-19T08:19:00;19.70;;;16.30;;
17369;SDS011;8802;52.402;4.920;2022-08-19T08:21:30;21.42;;;17.40;;
17369;SDS011;8802;52.402;4.920;2022-08-19T08:23:58;18.65;;;15.25;;
17369;SDS011;8802;52.402;4.920;2022-08-19T08:26:25;17.58;;;14.57;;
17369;SDS011;8802;52.402;4.920;2022-08-19T08:28:52;18.13;;;13.75;;
17369;SDS011;8802;52.402;4.920;2022-08-19T08:31:19;16.83;;;12.75;;
17369;SDS011;8802;52.402;4.920;2022-08-19T08:33:47;16.35;;;13.73;;
17369;SDS011;8802;52.402;4.920;2022-08-19T08:36:13;18.65;;;13.27;;
17369;SDS011;8802;52.402;4.920;2022-08-19T08:38:41;15.13;;;12.43;;
17369;SDS011;8802;52.402;4.920;2022-08-19T08:41:13;18.38;;;13.60;;
17369;SDS011;8802;52.402;4.920;2022-08-19T08:43:46;17.38;;;13.07;;
17369;SDS011;8802;52.402;4.920;2022-08-19T08:46:17;17.65;;;13.32;;
17369;SDS011;8802;52.402;4.920;2022-08-19T08:48:51;11.35;;;10.15;;
17369;SDS011;8802;52.402;4.920;2022-08-19T08:51:25;14.60;;;11.45;;
17369;SDS011;8802;52.402;4.920;2022-08-19T08:53:55;14.38;;;11.73;;
17369;SDS011;8802;52.402;4.920;2022-08-19T08:56:24;13.77;;;11.80;;
17369;SDS011;8802;52.402;4.920;2022-08-19T08:58:53;13.45;;;9.95;;
17369;SDS011;8802;52.402;4.920;2022-08-19T09:01:23;13.75;;;10.75;;
17369;SDS011;8802;52.402;4.920;2022-08-19T09:03:50;14.00;;;9.57;;
17369;SDS011;8802;52.402;4.920;2022-08-19T09:06:19;11.07;;;8.38;;
17369;SDS011;8802;52.402;4.920;2022-08-19T09:08:54;10.55;;;7.63;;
17369;SDS011;8802;52.402;4.920;2022-08-19T09:11:31;8.70;;;6.95;;
17369;SDS011;8802;52.402;4.920;2022-08-19T09:14:08;11.07;;;6.80;;
17369;SDS011;8802;52.402;4.920;2022-08-19T09:16:48;7.63;;;6.88;;
17369;SDS011;8802;52.402;4.920;2022-08-19T09:19:16;8.77;;;6.80;;
17369;SDS011;8802;52.402;4.920;2022-08-19T09:21:43;7.93;;;7.13;;
17369;SDS011;8802;52.402;4.920;2022-08-19T09:24:11;11.43;;;6.97;;
17369;SDS011;8802;52.402;4.920;2022-08-19T09:26:39;7.05;;;6.35;;
17369;SDS011;8802;52.402;4.920;2022-08-19T09:29:08;7.90;;;6.57;;
17369;SDS011;8802;52.402;4.920;2022-08-19T09:31:36;7.07;;;6.38;;
17369;SDS011;8802;52.402;4.920;2022-08-19T09:34:03;8.52;;;6.57;;
17369;SDS011;8802;52.402;4.920;2022-08-19T09:36:30;9.02;;;6.68;;
17369;SDS011;8802;52.402;4.920;2022-08-19T09:38:58;7.15;;;6.45;;
17369;SDS011;8802;52.402;4.920;2022-08-19T09:41:26;10.77;;;7.53;;
17369;SDS011;8802;52.402;4.920;2022-08-19T09:43:55;10.05;;;7.20;;
17369;SDS011;8802;52.402;4.920;2022-08-19T09:46:24;11.48;;;7.07;;
17369;SDS011;8802;52.402;4.920;2022-08-19T09:48:53;8.80;;;6.65;;
17369;SDS011;8802;52.402;4.920;2022-08-19T09:51:24;9.32;;;7.28;;
17369;SDS011;8802;52.402;4.920;2022-08-19T09:53:54;9.15;;;6.18;;
17369;SDS011;8802;52.402;4.920;2022-08-19T09:56:25;8.02;;;6.32;;
17369;SDS011;8802;52.402;4.920;2022-08-19T09:58:51;8.77;;;7.00;;
17369;SDS011;8802;52.402;4.920;2022-08-19T10:01:21;9.27;;;6.53;;
17369;SDS011;8802;52.402;4.920;2022-08-19T10:03:49;13.30;;;6.80;;
17369;SDS011;8802;52.402;4.920;2022-08-19T10:06:18;10.68;;;6.72;;
17369;SDS011;8802;52.402;4.920;2022-08-19T10:08:45;11.35;;;6.90;;
17369;SDS011;8802;52.402;4.920;2022-08-19T10:11:13;9.98;;;6.53;;
17369;SDS011;8802;52.402;4.920;2022-08-19T10:13:42;8.30;;;7.18;;
17369;SDS011;8802;52.402;4.920;2022-08-19T10:16:11;8.43;;;6.57;;
17369;SDS011;8802;52.402;4.920;2022-08-19T10:18:42;7.68;;;6.88;;
17369;SDS011;8802;52.402;4.920;2022-08-19T10:21:10;8.82;;;6.93;;
17369;SDS011;8802;52.402;4.920;2022-08-19T10:23:39;9.90;;;6.22;;
17369;SDS011;8802;52.402;4.920;2022-08-19T10:26:08;11.25;;;6.05;;
17369;SDS011;8802;52.402;4.920;2022-08-19T10:28:36;9.52;;;6.00;;
17369;SDS011;8802;52.402;4.920;2022-08-19T10:31:03;9.07;;;6.78;;
17369;SDS011;8802;52.402;4.920;2022-08-19T10:33:32;8.18;;;6.60;;
17369;SDS011;8802;52.402;4.920;2022-08-19T10:36:01;7.30;;;6.38;;
17369;SDS011;8802;52.402;4.920;2022-08-19T10:38:29;7.80;;;6.28;;
17369;SDS011;8802;52.402;4.920;2022-08-19T10:40:56;8.20;;;6.75;;
17369;SDS011;8802;52.402;4.920;2022-08-19T10:43:23;9.35;;;7.07;;
17369;SDS011;8802;52.402;4.920;2022-08-19T10:45:53;8.48;;;6.45;;
17369;SDS011;8802;52.402;4.920;2022-08-19T10:48:24;11.18;;;6.70;;
17369;SDS011;8802;52.402;4.920;2022-08-19T10:50:51;8.32;;;5.88;;
17369;SDS011;8802;52.402;4.920;2022-08-19T10:53:36;9.98;;;6.78;;
17369;SDS011;8802;52.402;4.920;2022-08-19T10:56:03;6.88;;;5.70;;
17369;SDS011;8802;52.402;4.920;2022-08-19T10:58:48;5.30;;;4.78;;
17369;SDS011;8802;52.402;4.920;2022-08-19T11:01:15;7.00;;;5.28;;
17369;SDS011;8802;52.402;4.920;2022-08-19T11:03:42;7.75;;;5.13;;
17369;SDS011;8802;52.402;4.920;2022-08-19T11:06:10;10.82;;;6.18;;
17369;SDS011;8802;52.402;4.920;2022-08-19T11:08:39;6.93;;;4.95;;
17369;SDS011;8802;52.402;4.920;2022-08-19T11:11:08;10.27;;;5.25;;
17369;SDS011;8802;52.402;4.920;2022-08-19T11:13:37;7.50;;;4.57;;
17369;SDS011;8802;52.402;4.920;2022-08-19T11:16:06;8.75;;;4.57;;
17369;SDS011;8802;52.402;4.920;2022-08-19T11:18:36;7.25;;;4.13;;
17369;SDS011;8802;52.402;4.920;2022-08-19T11:21:07;8.60;;;4.60;;
17369;SDS011;8802;52.402;4.920;2022-08-19T11:23:36;7.05;;;4.72;;
17369;SDS011;8802;52.402;4.920;2022-08-19T11:26:05;8.18;;;4.38;;
17369;SDS011;8802;52.402;4.920;2022-08-19T11:28:32;7.50;;;4.40;;
17369;SDS011;8802;52.402;4.920;2022-08-19T11:30:59;7.25;;;4.00;;
17369;SDS011;8802;52.402;4.920;2022-08-19T11:33:28;5.18;;;3.60;;
17369;SDS011;8802;52.402;4.920;2022-08-19T11:35:56;5.38;;;4.00;;
17369;SDS011;8802;52.402;4.920;2022-08-19T11:38:24;6.57;;;4.30;;
17369;SDS011;8802;52.402;4.920;2022-08-19T11:40:55;5.05;;;3.80;;
17369;SDS011;8802;52.402;4.920;2022-08-19T11:43:24;6.25;;;3.83;;
17369;SDS011;8802;52.402;4.920;2022-08-19T11:45:51;6.95;;;3.97;;
17369;SDS011;8802;52.402;4.920;2022-08-19T11:48:19;4.97;;;3.42;;
17369;SDS011;8802;52.402;4.920;2022-08-19T11:50:47;9.60;;;3.70;;
17369;SDS011;8802;52.402;4.920;2022-08-19T11:53:14;5.38;;;2.85;;
17369;SDS011;8802;52.402;4.920;2022-08-19T11:55:43;6.90;;;3.10;;
17369;SDS011;8802;52.402;4.920;2022-08-19T11:58:10;7.35;;;3.70;;
17369;SDS011;8802;52.402;4.920;2022-08-19T12:00:39;5.82;;;3.42;;
17369;SDS011;8802;52.402;4.920;2022-08-19T12:03:06;4.72;;;3.33;;
17369;SDS011;8802;52.402;4.920;2022-08-19T12:05:33;4.10;;;3.05;;
17369;SDS011;8802;52.402;4.920;2022-08-19T12:08:02;5.47;;;2.78;;
17369;SDS011;8802;52.402;4.920;2022-08-19T12:10:29;6.57;;;3.00;;
17369;SDS011;8802;52.402;4.920;2022-08-19T12:12:56;3.63;;;2.60;;
17369;SDS011;8802;52.402;4.920;2022-08-19T12:15:23;4.30;;;2.30;;
17369;SDS011;8802;52.402;4.920;2022-08-19T12:17:51;3.50;;;2.47;;
17369;SDS011;8802;52.402;4.920;2022-08-19T12:20:21;3.97;;;2.50;;
17369;SDS011;8802;52.402;4.920;2022-08-19T12:22:49;3.47;;;2.20;;
17369;SDS011;8802;52.402;4.920;2022-08-19T12:25:16;5.13;;;2.08;;
17369;SDS011;8802;52.402;4.920;2022-08-19T12:27:43;2.17;;;1.95;;
17369;SDS011;8802;52.402;4.920;2022-08-19T12:30:12;4.90;;;2.10;;
17369;SDS011;8802;52.402;4.920;2022-08-19T12:32:39;3.72;;;2.15;;
17369;SDS011;8802;52.402;4.920;2022-08-19T12:35:08;2.25;;;1.80;;
17369;SDS011;8802;52.402;4.920;2022-08-19T12:37:36;2.85;;;1.80;;
17369;SDS011;8802;52.402;4.920;2022-08-19T12:40:04;3.35;;;1.90;;
17369;SDS011;8802;52.402;4.920;2022-08-19T12:42:31;2.35;;;1.42;;
17369;SDS011;8802;52.402;4.920;2022-08-19T12:44:59;2.13;;;1.50;;
17369;SDS011;8802;52.402;4.920;2022-08-19T12:47:26;2.83;;;1.45;;
17369;SDS011;8802;52.402;4.920;2022-08-19T12:49:53;3.00;;;1.50;;
17369;SDS011;8802;52.402;4.920;2022-08-19T12:52:23;4.55;;;1.42;;
17369;SDS011;8802;52.402;4.920;2022-08-19T12:54:52;2.97;;;1.20;;
17369;SDS011;8802;52.402;4.920;2022-08-19T12:57:20;2.83;;;1.45;;
17369;SDS011;8802;52.402;4.920;2022-08-19T12:59:51;2.05;;;1.30;;
17369;SDS011;8802;52.402;4.920;2022-08-19T13:02:19;2.55;;;1.27;;
17369;SDS011;8802;52.402;4.920;2022-08-19T13:04:46;1.88;;;1.02;;
17369;SDS011;8802;52.402;4.920;2022-08-19T13:07:13;2.25;;;1.13;;
17369;SDS011;8802;52.402;4.920;2022-08-19T13:09:41;1.48;;;1.00;;
17369;SDS011;8802;52.402;4.920;2022-08-19T13:12:08;1.70;;;1.30;;
17369;SDS011;8802;52.402;4.920;2022-08-19T13:14:38;2.17;;;1.30;;
17369;SDS011;8802;52.402;4.920;2022-08-19T13:17:05;1.27;;;1.10;;
17369;SDS011;8802;52.402;4.920;2022-08-19T13:19:33;2.13;;;1.10;;
17369;SDS011;8802;52.402;4.920;2022-08-19T13:22:02;2.28;;;1.25;;
17369;SDS011;8802;52.402;4.920;2022-08-19T13:24:29;2.67;;;1.40;;
17369;SDS011;8802;52.402;4.920;2022-08-19T13:27:00;3.72;;;1.40;;
17369;SDS011;8802;52.402;4.920;2022-08-19T13:29:27;1.75;;;1.05;;
17369;SDS011;8802;52.402;4.920;2022-08-19T13:32:11;1.67;;;1.20;;
17369;SDS011;8802;52.402;4.920;2022-08-19T13:34:55;1.00;;;0.93;;
17369;SDS011;8802;52.402;4.920;2022-08-19T13:37:22;1.40;;;1.10;;
17369;SDS011;8802;52.402;4.920;2022-08-19T13:40:03;1.42;;;1.10;;
17369;SDS011;8802;52.402;4.920;2022-08-19T13:42:32;1.10;;;1.00;;
17369;SDS011;8802;52.402;4.920;2022-08-19T13:44:59;1.35;;;0.95;;
17369;SDS011;8802;52.402;4.920;2022-08-19T13:47:26;2.97;;;1.42;;
17369;SDS011;8802;52.402;4.920;2022-08-19T13:49:53;4.10;;;1.00;;
17369;SDS011;8802;52.402;4.920;2022-08-19T13:52:20;4.93;;;2.17;;
17369;SDS011;8802;52.402;4.920;2022-08-19T13:54:47;1.98;;;1.10;;
17369;SDS011;8802;52.402;4.920;2022-08-19T13:57:14;2.13;;;1.20;;
17369;SDS011;8802;52.402;4.920;2022-08-19T13:59:42;2.75;;;1.05;;
17369;SDS011;8802;52.402;4.920;2022-08-19T14:02:08;2.47;;;1.20;;
17369;SDS011;8802;52.402;4.920;2022-08-19T14:04:35;1.08;;;0.85;;
17369;SDS011;8802;52.402;4.920;2022-08-19T14:07:03;1.67;;;0.95;;
17369;SDS011;8802;52.402;4.920;2022-08-19T14:09:30;1.65;;;1.20;;
17369;SDS011;8802;52.402;4.920;2022-08-19T14:11:57;1.38;;;1.02;;
17369;SDS011;8802;52.402;4.920;2022-08-19T14:14:24;2.83;;;1.23;;
17369;SDS011;8802;52.402;4.920;2022-08-19T14:16:52;1.40;;;1.13;;
17369;SDS011;8802;52.402;4.920;2022-08-19T14:19:19;1.40;;;1.00;;
17369;SDS011;8802;52.402;4.920;2022-08-19T14:21:46;1.42;;;1.30;;
17369;SDS011;8802;52.402;4.920;2022-08-19T14:24:13;2.85;;;1.27;;
17369;SDS011;8802;52.402;4.920;2022-08-19T14:26:40;1.60;;;1.10;;
17369;SDS011;8802;52.402;4.920;2022-08-19T14:29:07;1.30;;;1.10;;
17369;SDS011;8802;52.402;4.920;2022-08-19T14:31:33;2.20;;;1.17;;
17369;SDS011;8802;52.402;4.920;2022-08-19T14:34:02;1.52;;;1.20;;
17369;SDS011;8802;52.402;4.920;2022-08-19T14:36:29;1.40;;;1.27;;
17369;SDS011;8802;52.402;4.920;2022-08-19T14:38:57;1.25;;;1.08;;
17369;SDS011;8802;52.402;4.920;2022-08-19T14:41:25;1.35;;;0.90;;
17369;SDS011;8802;52.402;4.920;2022-08-19T14:43:52;2.00;;;1.20;;
17369;SDS011;8802;52.402;4.920;2022-08-19T14:46:20;1.67;;;1.00;;
17369;SDS011;8802;52.402;4.920;2022-08-19T14:48:49;2.28;;;1.17;;
17369;SDS011;8802;52.402;4.920;2022-08-19T14:51:18;3.15;;;1.63;;
17369;SDS011;8802;52.402;4.920;2022-08-19T14:53:47;2.10;;;1.40;;
17369;SDS011;8802;52.402;4.920;2022-08-19T14:56:15;2.40;;;1.55;;
17369;SDS011;8802;52.402;4.920;2022-08-19T14:58:43;1.63;;;1.15;;